sensor_id;sensor_type;location;lat;lon;timestamp;temperature;humidity
19898;DHT22;10111;50.814;4.572;2023-04-29T00:01:08;13.60;99.90
19898;DHT22;10111;50.814;4.572;2023-04-29T00:03:34;13.60;99.90
19898;DHT22;10111;50.814;4.572;2023-04-29T00:06:00;13.50;99.90
19898;DHT22;10111;50.814;4.572;2023-04-29T00:08:26;13.70;99.90
19898;DHT22;10111;50.814;4.572;2023-04-29T00:10:52;13.60;99.90
19898;DHT22;10111;50.814;4.572;2023-04-29T00:13:17;13.60;99.90
19898;DHT22;10111;50.814;4.572;2023-04-29T00:15:43;13.60;99.90
19898;DHT22;10111;50.814;4.572;2023-04-29T00:18:09;13.60;99.90
19898;DHT22;10111;50.814;4.572;2023-04-29T00:20:35;13.50;99.90
19898;DHT22;10111;50.814;4.572;2023-04-29T00:23:04;13.40;99.90
19898;DHT22;10111;50.814;4.572;2023-04-29T00:25:30;13.30;99.90
19898;DHT22;10111;50.814;4.572;2023-04-29T00:27:56;13.40;99.90
19898;DHT22;10111;50.814;4.572;2023-04-29T00:30:26;13.30;99.90
19898;DHT22;10111;50.814;4.572;2023-04-29T00:32:53;13.30;99.90
19898;DHT22;10111;50.814;4.572;2023-04-29T00:35:19;13.20;99.90
19898;DHT22;10111;50.814;4.572;2023-04-29T00:37:45;13.00;99.90
19898;DHT22;10111;50.814;4.572;2023-04-29T00:40:11;13.00;99.90
19898;DHT22;10111;50.814;4.572;2023-04-29T00:42:39;13.00;99.90
19898;DHT22;10111;50.814;4.572;2023-04-29T00:45:06;13.10;99.90
19898;DHT22;10111;50.814;4.572;2023-04-29T00:47:32;13.00;99.90
19898;DHT22;10111;50.814;4.572;2023-04-29T00:49:58;13.00;99.90
19898;DHT22;10111;50.814;4.572;2023-04-29T00:52:24;12.80;99.90
19898;DHT22;10111;50.814;4.572;2023-04-29T00:54:51;12.90;99.90
19898;DHT22;10111;50.814;4.572;2023-04-29T00:57:18;12.80;99.90
19898;DHT22;10111;50.814;4.572;2023-04-29T00:59:45;12.90;99.90
19898;DHT22;10111;50.814;4.572;2023-04-29T01:02:10;12.90;99.90
19898;DHT22;10111;50.814;4.572;2023-04-29T01:04:36;13.20;99.90
19898;DHT22;10111;50.814;4.572;2023-04-29T01:10:27;13.00;99.90
19898;DHT22;10111;50.814;4.572;2023-04-29T01:13:04;12.90;99.90
19898;DHT22;10111;50.814;4.572;2023-04-29T01:20:48;12.90;99.90
19898;DHT22;10111;50.814;4.572;2023-04-29T01:23:14;13.00;99.90
19898;DHT22;10111;50.814;4.572;2023-04-29T01:25:40;13.00;99.90
19898;DHT22;10111;50.814;4.572;2023-04-29T01:37:17;12.80;99.90
19898;DHT22;10111;50.814;4.572;2023-04-29T01:39:56;12.70;99.90
19898;DHT22;10111;50.814;4.572;2023-04-29T01:42:43;12.60;99.90
19898;DHT22;10111;50.814;4.572;2023-04-29T01:45:14;12.70;99.90
19898;DHT22;10111;50.814;4.572;2023-04-29T01:47:41;12.70;99.90
19898;DHT22;10111;50.814;4.572;2023-04-29T01:50:07;12.80;99.90
19898;DHT22;10111;50.814;4.572;2023-04-29T01:52:33;12.70;99.90
19898;DHT22;10111;50.814;4.572;2023-04-29T01:54:59;12.80;99.90
19898;DHT22;10111;50.814;4.572;2023-04-29T01:57:24;12.70;99.90
19898;DHT22;10111;50.814;4.572;2023-04-29T01:59:50;12.70;99.90
19898;DHT22;10111;50.814;4.572;2023-04-29T02:02:15;12.70;99.90
19898;DHT22;10111;50.814;4.572;2023-04-29T02:04:45;12.70;99.90
19898;DHT22;10111;50.814;4.572;2023-04-29T02:07:11;12.80;99.90
19898;DHT22;10111;50.814;4.572;2023-04-29T02:09:36;12.70;99.90
19898;DHT22;10111;50.814;4.572;2023-04-29T02:12:02;12.60;99.90
19898;DHT22;10111;50.814;4.572;2023-04-29T02:14:29;12.30;99.90
19898;DHT22;10111;50.814;4.572;2023-04-29T02:16:55;12.40;99.90
19898;DHT22;10111;50.814;4.572;2023-04-29T02:19:20;12.40;99.90
19898;DHT22;10111;50.814;4.572;2023-04-29T02:21:46;12.30;99.90
19898;DHT22;10111;50.814;4.572;2023-04-29T02:24:11;12.30;99.90
19898;DHT22;10111;50.814;4.572;2023-04-29T02:26:37;12.30;99.90
19898;DHT22;10111;50.814;4.572;2023-04-29T02:29:03;12.40;99.90
19898;DHT22;10111;50.814;4.572;2023-04-29T02:31:28;12.30;99.90
19898;DHT22;10111;50.814;4.572;2023-04-29T02:33:54;12.30;99.90
19898;DHT22;10111;50.814;4.572;2023-04-29T02:36:20;12.10;99.90
19898;DHT22;10111;50.814;4.572;2023-04-29T02:38:46;12.20;99.90
19898;DHT22;10111;50.814;4.572;2023-04-29T02:41:18;12.10;99.90
19898;DHT22;10111;50.814;4.572;2023-04-29T02:43:43;12.10;99.90
19898;DHT22;10111;50.814;4.572;2023-04-29T02:46:09;12.10;99.90
19898;DHT22;10111;50.814;4.572;2023-04-29T02:48:35;12.10;99.90
19898;DHT22;10111;50.814;4.572;2023-04-29T02:51:01;12.10;99.90
19898;DHT22;10111;50.814;4.572;2023-04-29T02:53:26;12.10;99.90
19898;DHT22;10111;50.814;4.572;2023-04-29T02:55:52;12.10;99.90
19898;DHT22;10111;50.814;4.572;2023-04-29T02:58:18;12.00;99.90
19898;DHT22;10111;50.814;4.572;2023-04-29T03:00:43;12.00;99.90
19898;DHT22;10111;50.814;4.572;2023-04-29T03:03:09;12.10;99.90
19898;DHT22;10111;50.814;4.572;2023-04-29T03:05:35;12.10;99.90
19898;DHT22;10111;50.814;4.572;2023-04-29T03:08:00;12.00;99.90
19898;DHT22;10111;50.814;4.572;2023-04-29T03:10:27;11.90;99.90
19898;DHT22;10111;50.814;4.572;2023-04-29T03:12:52;11.80;99.90
19898;DHT22;10111;50.814;4.572;2023-04-29T03:15:18;11.80;99.90
19898;DHT22;10111;50.814;4.572;2023-04-29T03:17:44;11.90;99.90
19898;DHT22;10111;50.814;4.572;2023-04-29T03:20:11;11.80;99.90
19898;DHT22;10111;50.814;4.572;2023-04-29T03:22:36;11.70;99.90
19898;DHT22;10111;50.814;4.572;2023-04-29T03:25:03;11.60;99.90
19898;DHT22;10111;50.814;4.572;2023-04-29T03:27:28;11.70;99.90
19898;DHT22;10111;50.814;4.572;2023-04-29T03:29:54;11.90;99.90
19898;DHT22;10111;50.814;4.572;2023-04-29T03:32:20;12.10;99.90
19898;DHT22;10111;50.814;4.572;2023-04-29T03:34:45;12.10;99.90
19898;DHT22;10111;50.814;4.572;2023-04-29T03:37:11;12.00;99.90
19898;DHT22;10111;50.814;4.572;2023-04-29T03:39:37;12.00;99.90
19898;DHT22;10111;50.814;4.572;2023-04-29T03:42:03;11.90;99.90
19898;DHT22;10111;50.814;4.572;2023-04-29T03:44:29;11.90;99.90
19898;DHT22;10111;50.814;4.572;2023-04-29T03:46:54;11.80;99.90
19898;DHT22;10111;50.814;4.572;2023-04-29T03:49:20;11.60;99.90
19898;DHT22;10111;50.814;4.572;2023-04-29T03:51:46;11.80;99.90
19898;DHT22;10111;50.814;4.572;2023-04-29T03:54:12;11.70;99.90
19898;DHT22;10111;50.814;4.572;2023-04-29T03:56:37;11.70;99.90
19898;DHT22;10111;50.814;4.572;2023-04-29T03:59:03;11.60;99.90
19898;DHT22;10111;50.814;4.572;2023-04-29T04:01:29;11.70;99.90
19898;DHT22;10111;50.814;4.572;2023-04-29T04:03:54;11.90;99.90
19898;DHT22;10111;50.814;4.572;2023-04-29T04:06:20;11.80;99.90
19898;DHT22;10111;50.814;4.572;2023-04-29T04:08:46;11.90;99.90
19898;DHT22;10111;50.814;4.572;2023-04-29T04:11:12;11.80;99.90
19898;DHT22;10111;50.814;4.572;2023-04-29T04:13:40;11.70;99.90
19898;DHT22;10111;50.814;4.572;2023-04-29T04:16:10;11.70;99.90
19898;DHT22;10111;50.814;4.572;2023-04-29T04:18:36;11.70;99.90
19898;DHT22;10111;50.814;4.572;2023-04-29T04:21:10;11.70;99.90
19898;DHT22;10111;50.814;4.572;2023-04-29T04:23:36;11.70;99.90
19898;DHT22;10111;50.814;4.572;2023-04-29T04:26:04;11.70;99.90
19898;DHT22;10111;50.814;4.572;2023-04-29T04:28:30;11.70;99.90
19898;DHT22;10111;50.814;4.572;2023-04-29T04:30:56;11.70;99.90
19898;DHT22;10111;50.814;4.572;2023-04-29T04:33:23;11.70;99.90
19898;DHT22;10111;50.814;4.572;2023-04-29T04:35:49;11.80;99.90
19898;DHT22;10111;50.814;4.572;2023-04-29T04:38:14;11.80;99.90
19898;DHT22;10111;50.814;4.572;2023-04-29T04:40:40;11.80;99.90
19898;DHT22;10111;50.814;4.572;2023-04-29T04:43:06;11.80;99.90
19898;DHT22;10111;50.814;4.572;2023-04-29T04:45:32;11.80;99.90
19898;DHT22;10111;50.814;4.572;2023-04-29T04:47:58;11.80;99.90
19898;DHT22;10111;50.814;4.572;2023-04-29T04:50:26;11.70;99.90
19898;DHT22;10111;50.814;4.572;2023-04-29T04:52:56;11.70;99.90
19898;DHT22;10111;50.814;4.572;2023-04-29T04:55:22;11.70;99.90
19898;DHT22;10111;50.814;4.572;2023-04-29T04:57:48;11.80;99.90
19898;DHT22;10111;50.814;4.572;2023-04-29T05:00:14;11.80;99.90
19898;DHT22;10111;50.814;4.572;2023-04-29T05:02:40;11.70;99.90
19898;DHT22;10111;50.814;4.572;2023-04-29T05:05:06;11.90;99.90
19898;DHT22;10111;50.814;4.572;2023-04-29T05:07:32;11.80;99.90
19898;DHT22;10111;50.814;4.572;2023-04-29T05:10:00;11.90;99.90
19898;DHT22;10111;50.814;4.572;2023-04-29T05:12:29;11.90;99.90
19898;DHT22;10111;50.814;4.572;2023-04-29T05:14:58;11.80;99.90
19898;DHT22;10111;50.814;4.572;2023-04-29T05:17:24;11.70;99.90
19898;DHT22;10111;50.814;4.572;2023-04-29T05:19:49;11.70;99.90
19898;DHT22;10111;50.814;4.572;2023-04-29T05:22:15;11.70;99.90
19898;DHT22;10111;50.814;4.572;2023-04-29T05:24:41;11.60;99.90
19898;DHT22;10111;50.814;4.572;2023-04-29T05:27:07;11.60;99.90
19898;DHT22;10111;50.814;4.572;2023-04-29T05:29:32;11.70;99.90
19898;DHT22;10111;50.814;4.572;2023-04-29T05:31:58;11.60;99.90
19898;DHT22;10111;50.814;4.572;2023-04-29T05:34:24;11.60;99.90
19898;DHT22;10111;50.814;4.572;2023-04-29T05:36:50;11.60;99.90
19898;DHT22;10111;50.814;4.572;2023-04-29T05:39:16;11.80;99.90
19898;DHT22;10111;50.814;4.572;2023-04-29T05:41:42;11.70;99.90
19898;DHT22;10111;50.814;4.572;2023-04-29T05:44:08;11.50;99.90
19898;DHT22;10111;50.814;4.572;2023-04-29T05:46:33;11.70;99.90
19898;DHT22;10111;50.814;4.572;2023-04-29T05:48:59;11.70;99.90
19898;DHT22;10111;50.814;4.572;2023-04-29T05:51:25;11.70;99.90
19898;DHT22;10111;50.814;4.572;2023-04-29T05:53:53;11.70;99.90
19898;DHT22;10111;50.814;4.572;2023-04-29T05:56:18;11.80;99.90
19898;DHT22;10111;50.814;4.572;2023-04-29T05:58:44;11.70;99.90
19898;DHT22;10111;50.814;4.572;2023-04-29T06:01:10;11.70;99.90
19898;DHT22;10111;50.814;4.572;2023-04-29T06:03:36;11.70;99.90
19898;DHT22;10111;50.814;4.572;2023-04-29T06:06:02;11.70;99.90
19898;DHT22;10111;50.814;4.572;2023-04-29T06:08:28;11.80;99.90
19898;DHT22;10111;50.814;4.572;2023-04-29T06:10:54;11.80;99.90
19898;DHT22;10111;50.814;4.572;2023-04-29T06:13:20;11.60;99.90
19898;DHT22;10111;50.814;4.572;2023-04-29T06:15:46;11.70;99.90
19898;DHT22;10111;50.814;4.572;2023-04-29T06:18:11;11.70;99.90
19898;DHT22;10111;50.814;4.572;2023-04-29T06:20:37;11.70;99.90
19898;DHT22;10111;50.814;4.572;2023-04-29T06:23:03;11.80;99.90
19898;DHT22;10111;50.814;4.572;2023-04-29T06:25:29;11.80;99.90
19898;DHT22;10111;50.814;4.572;2023-04-29T06:27:58;11.70;99.90
19898;DHT22;10111;50.814;4.572;2023-04-29T06:30:25;11.70;99.90
19898;DHT22;10111;50.814;4.572;2023-04-29T06:32:50;11.70;99.90
19898;DHT22;10111;50.814;4.572;2023-04-29T06:35:16;11.70;99.90
19898;DHT22;10111;50.814;4.572;2023-04-29T06:37:41;11.90;99.90
19898;DHT22;10111;50.814;4.572;2023-04-29T06:40:08;11.90;99.90
19898;DHT22;10111;50.814;4.572;2023-04-29T06:42:33;11.90;99.90
19898;DHT22;10111;50.814;4.572;2023-04-29T06:44:59;11.90;99.90
19898;DHT22;10111;50.814;4.572;2023-04-29T06:47:25;11.90;99.90
19898;DHT22;10111;50.814;4.572;2023-04-29T06:49:50;11.90;99.90
19898;DHT22;10111;50.814;4.572;2023-04-29T06:52:17;11.90;99.90
19898;DHT22;10111;50.814;4.572;2023-04-29T06:54:43;12.00;99.90
19898;DHT22;10111;50.814;4.572;2023-04-29T06:57:09;12.10;99.90
19898;DHT22;10111;50.814;4.572;2023-04-29T06:59:35;12.10;99.90
19898;DHT22;10111;50.814;4.572;2023-04-29T07:02:01;12.00;99.90
19898;DHT22;10111;50.814;4.572;2023-04-29T07:04:26;12.00;99.90
19898;DHT22;10111;50.814;4.572;2023-04-29T07:06:52;11.90;99.90
19898;DHT22;10111;50.814;4.572;2023-04-29T07:09:18;12.00;99.90
19898;DHT22;10111;50.814;4.572;2023-04-29T07:11:44;12.00;99.90
19898;DHT22;10111;50.814;4.572;2023-04-29T07:14:09;12.30;99.90
19898;DHT22;10111;50.814;4.572;2023-04-29T07:16:35;12.30;99.90
19898;DHT22;10111;50.814;4.572;2023-04-29T07:19:01;12.30;99.90
19898;DHT22;10111;50.814;4.572;2023-04-29T07:21:27;12.10;99.90
19898;DHT22;10111;50.814;4.572;2023-04-29T07:23:52;12.20;99.90
19898;DHT22;10111;50.814;4.572;2023-04-29T07:26:19;12.10;99.90
19898;DHT22;10111;50.814;4.572;2023-04-29T07:28:47;12.10;99.90
19898;DHT22;10111;50.814;4.572;2023-04-29T07:31:13;12.10;99.90
19898;DHT22;10111;50.814;4.572;2023-04-29T07:33:39;12.20;99.90
19898;DHT22;10111;50.814;4.572;2023-04-29T07:36:05;12.20;99.90
19898;DHT22;10111;50.814;4.572;2023-04-29T07:38:32;12.10;99.90
19898;DHT22;10111;50.814;4.572;2023-04-29T07:40:58;12.00;99.90
19898;DHT22;10111;50.814;4.572;2023-04-29T07:43:23;12.00;99.90
19898;DHT22;10111;50.814;4.572;2023-04-29T07:45:49;11.80;99.90
19898;DHT22;10111;50.814;4.572;2023-04-29T07:48:15;11.90;99.90
19898;DHT22;10111;50.814;4.572;2023-04-29T07:50:41;11.70;99.90
19898;DHT22;10111;50.814;4.572;2023-04-29T07:53:08;11.60;99.90
19898;DHT22;10111;50.814;4.572;2023-04-29T07:55:36;11.60;99.90
19898;DHT22;10111;50.814;4.572;2023-04-29T07:58:02;11.50;99.90
19898;DHT22;10111;50.814;4.572;2023-04-29T08:00:28;11.70;99.90
19898;DHT22;10111;50.814;4.572;2023-04-29T08:02:54;11.60;99.90
19898;DHT22;10111;50.814;4.572;2023-04-29T08:05:21;11.60;99.90
19898;DHT22;10111;50.814;4.572;2023-04-29T08:07:47;11.90;99.90
19898;DHT22;10111;50.814;4.572;2023-04-29T08:10:14;11.90;99.90
19898;DHT22;10111;50.814;4.572;2023-04-29T08:12:40;11.90;99.90
19898;DHT22;10111;50.814;4.572;2023-04-29T08:15:06;12.00;99.90
19898;DHT22;10111;50.814;4.572;2023-04-29T08:17:32;12.30;99.90
19898;DHT22;10111;50.814;4.572;2023-04-29T08:19:57;12.20;99.90
19898;DHT22;10111;50.814;4.572;2023-04-29T08:22:23;12.10;99.90
19898;DHT22;10111;50.814;4.572;2023-04-29T08:24:49;12.30;99.90
19898;DHT22;10111;50.814;4.572;2023-04-29T08:27:14;12.50;99.90
19898;DHT22;10111;50.814;4.572;2023-04-29T08:29:41;12.60;99.90
19898;DHT22;10111;50.814;4.572;2023-04-29T08:32:06;12.70;99.90
19898;DHT22;10111;50.814;4.572;2023-04-29T08:34:32;12.70;99.90
19898;DHT22;10111;50.814;4.572;2023-04-29T08:37:01;13.00;99.90
19898;DHT22;10111;50.814;4.572;2023-04-29T08:39:28;13.10;99.90
19898;DHT22;10111;50.814;4.572;2023-04-29T08:41:56;13.20;99.90
19898;DHT22;10111;50.814;4.572;2023-04-29T08:44:22;13.30;99.90
19898;DHT22;10111;50.814;4.572;2023-04-29T08:46:48;13.40;99.90
19898;DHT22;10111;50.814;4.572;2023-04-29T08:49:14;13.30;99.90
19898;DHT22;10111;50.814;4.572;2023-04-29T08:51:40;13.40;99.90
19898;DHT22;10111;50.814;4.572;2023-04-29T08:54:05;13.20;99.90
19898;DHT22;10111;50.814;4.572;2023-04-29T08:56:32;13.30;99.90
19898;DHT22;10111;50.814;4.572;2023-04-29T08:59:01;13.30;99.90
19898;DHT22;10111;50.814;4.572;2023-04-29T09:01:28;13.30;99.90
19898;DHT22;10111;50.814;4.572;2023-04-29T09:06:44;13.20;99.90
19898;DHT22;10111;50.814;4.572;2023-04-29T09:09:11;13.20;99.90
19898;DHT22;10111;50.814;4.572;2023-04-29T09:11:39;13.10;99.90
19898;DHT22;10111;50.814;4.572;2023-04-29T09:14:05;12.80;99.90
19898;DHT22;10111;50.814;4.572;2023-04-29T09:16:32;12.90;99.90
19898;DHT22;10111;50.814;4.572;2023-04-29T09:18:59;13.00;99.90
19898;DHT22;10111;50.814;4.572;2023-04-29T09:21:27;13.00;99.90
19898;DHT22;10111;50.814;4.572;2023-04-29T09:23:55;13.10;99.90
19898;DHT22;10111;50.814;4.572;2023-04-29T09:26:21;13.00;99.90
19898;DHT22;10111;50.814;4.572;2023-04-29T09:29:08;13.10;99.90
19898;DHT22;10111;50.814;4.572;2023-04-29T09:31:35;13.20;99.90
19898;DHT22;10111;50.814;4.572;2023-04-29T09:34:01;13.30;99.90
19898;DHT22;10111;50.814;4.572;2023-04-29T09:36:46;13.40;99.90
19898;DHT22;10111;50.814;4.572;2023-04-29T09:39:20;13.40;99.90
19898;DHT22;10111;50.814;4.572;2023-04-29T09:44:23;13.70;99.90
19898;DHT22;10111;50.814;4.572;2023-04-29T09:47:02;14.00;99.90
19898;DHT22;10111;50.814;4.572;2023-04-29T09:49:38;14.00;99.90
19898;DHT22;10111;50.814;4.572;2023-04-29T09:52:10;14.30;99.90
19898;DHT22;10111;50.814;4.572;2023-04-29T09:54:38;14.50;99.90
19898;DHT22;10111;50.814;4.572;2023-04-29T09:57:05;14.90;99.90
19898;DHT22;10111;50.814;4.572;2023-04-29T09:59:32;15.10;99.90
19898;DHT22;10111;50.814;4.572;2023-04-29T10:02:07;15.30;99.90
19898;DHT22;10111;50.814;4.572;2023-04-29T10:04:34;15.50;99.90
19898;DHT22;10111;50.814;4.572;2023-04-29T10:07:04;15.60;99.90
19898;DHT22;10111;50.814;4.572;2023-04-29T10:09:31;15.70;99.90
19898;DHT22;10111;50.814;4.572;2023-04-29T10:11:56;15.70;99.90
19898;DHT22;10111;50.814;4.572;2023-04-29T10:14:23;15.70;99.90
19898;DHT22;10111;50.814;4.572;2023-04-29T10:17:07;15.80;99.90
19898;DHT22;10111;50.814;4.572;2023-04-29T10:22:08;15.50;99.90
19898;DHT22;10111;50.814;4.572;2023-04-29T10:24:37;15.30;99.90
19898;DHT22;10111;50.814;4.572;2023-04-29T10:27:06;15.40;99.90
19898;DHT22;10111;50.814;4.572;2023-04-29T10:29:37;15.40;99.90
19898;DHT22;10111;50.814;4.572;2023-04-29T10:32:06;15.60;99.90
19898;DHT22;10111;50.814;4.572;2023-04-29T10:34:36;15.80;99.90
19898;DHT22;10111;50.814;4.572;2023-04-29T10:37:02;15.60;99.90
19898;DHT22;10111;50.814;4.572;2023-04-29T10:39:54;15.30;99.90
19898;DHT22;10111;50.814;4.572;2023-04-29T10:45:26;15.60;99.90
19898;DHT22;10111;50.814;4.572;2023-04-29T10:53:03;15.40;99.90
19898;DHT22;10111;50.814;4.572;2023-04-29T10:55:29;15.50;99.90
19898;DHT22;10111;50.814;4.572;2023-04-29T10:57:56;15.30;99.90
19898;DHT22;10111;50.814;4.572;2023-04-29T11:00:27;15.30;99.90
19898;DHT22;10111;50.814;4.572;2023-04-29T11:02:53;15.30;99.90
19898;DHT22;10111;50.814;4.572;2023-04-29T11:10:40;14.90;99.90
19898;DHT22;10111;50.814;4.572;2023-04-29T11:13:28;15.00;99.90
19898;DHT22;10111;50.814;4.572;2023-04-29T11:16:10;15.20;99.90
19898;DHT22;10111;50.814;4.572;2023-04-29T11:19:02;15.10;99.90
19898;DHT22;10111;50.814;4.572;2023-04-29T11:21:28;15.20;99.90
19898;DHT22;10111;50.814;4.572;2023-04-29T11:23:55;15.40;99.90
19898;DHT22;10111;50.814;4.572;2023-04-29T11:26:23;15.20;99.90
19898;DHT22;10111;50.814;4.572;2023-04-29T11:28:50;15.30;99.90
19898;DHT22;10111;50.814;4.572;2023-04-29T11:31:16;15.30;99.90
19898;DHT22;10111;50.814;4.572;2023-04-29T11:33:42;15.40;99.90
19898;DHT22;10111;50.814;4.572;2023-04-29T11:36:10;15.50;99.90
19898;DHT22;10111;50.814;4.572;2023-04-29T11:38:38;15.60;99.90
19898;DHT22;10111;50.814;4.572;2023-04-29T11:41:05;15.50;99.90
19898;DHT22;10111;50.814;4.572;2023-04-29T11:43:31;15.60;99.90
19898;DHT22;10111;50.814;4.572;2023-04-29T11:45:56;15.60;99.90
19898;DHT22;10111;50.814;4.572;2023-04-29T11:48:25;16.00;99.90
19898;DHT22;10111;50.814;4.572;2023-04-29T11:50:57;16.00;99.90
19898;DHT22;10111;50.814;4.572;2023-04-29T11:53:25;15.90;99.90
19898;DHT22;10111;50.814;4.572;2023-04-29T11:55:54;16.00;99.90
19898;DHT22;10111;50.814;4.572;2023-04-29T11:58:20;16.30;99.90
19898;DHT22;10111;50.814;4.572;2023-04-29T12:00:47;15.90;99.90
19898;DHT22;10111;50.814;4.572;2023-04-29T12:03:13;15.90;99.90
19898;DHT22;10111;50.814;4.572;2023-04-29T12:05:54;16.00;99.90
19898;DHT22;10111;50.814;4.572;2023-04-29T12:08:24;16.00;99.90
19898;DHT22;10111;50.814;4.572;2023-04-29T12:10:51;16.50;99.90
19898;DHT22;10111;50.814;4.572;2023-04-29T12:13:18;16.50;99.90
19898;DHT22;10111;50.814;4.572;2023-04-29T12:15:45;16.60;99.90
19898;DHT22;10111;50.814;4.572;2023-04-29T12:18:12;16.60;99.90
19898;DHT22;10111;50.814;4.572;2023-04-29T12:20:39;16.70;99.90
19898;DHT22;10111;50.814;4.572;2023-04-29T12:23:19;17.10;99.90
19898;DHT22;10111;50.814;4.572;2023-04-29T12:25:57;17.10;99.90
19898;DHT22;10111;50.814;4.572;2023-04-29T12:28:24;17.40;99.90
19898;DHT22;10111;50.814;4.572;2023-04-29T12:30:51;17.70;99.90
19898;DHT22;10111;50.814;4.572;2023-04-29T12:33:26;17.90;99.90
19898;DHT22;10111;50.814;4.572;2023-04-29T12:35:54;17.40;99.90
19898;DHT22;10111;50.814;4.572;2023-04-29T12:38:24;17.40;99.90
19898;DHT22;10111;50.814;4.572;2023-04-29T12:40:55;17.30;99.90
19898;DHT22;10111;50.814;4.572;2023-04-29T12:43:31;17.20;99.90
19898;DHT22;10111;50.814;4.572;2023-04-29T12:46:04;17.00;99.90
19898;DHT22;10111;50.814;4.572;2023-04-29T12:48:31;16.70;99.90
19898;DHT22;10111;50.814;4.572;2023-04-29T12:50:57;16.70;99.90
19898;DHT22;10111;50.814;4.572;2023-04-29T12:53:28;16.90;99.90
19898;DHT22;10111;50.814;4.572;2023-04-29T12:55:54;17.10;99.90
19898;DHT22;10111;50.814;4.572;2023-04-29T12:58:20;17.20;99.90
19898;DHT22;10111;50.814;4.572;2023-04-29T13:00:46;17.20;99.90
19898;DHT22;10111;50.814;4.572;2023-04-29T13:03:11;17.10;99.90
19898;DHT22;10111;50.814;4.572;2023-04-29T13:05:37;17.10;99.90
19898;DHT22;10111;50.814;4.572;2023-04-29T13:08:03;17.10;99.90
19898;DHT22;10111;50.814;4.572;2023-04-29T13:10:33;17.00;99.90
19898;DHT22;10111;50.814;4.572;2023-04-29T13:12:59;17.00;99.90
19898;DHT22;10111;50.814;4.572;2023-04-29T13:15:25;16.70;99.90
19898;DHT22;10111;50.814;4.572;2023-04-29T13:17:52;16.50;99.90
19898;DHT22;10111;50.814;4.572;2023-04-29T13:20:17;16.60;99.90
19898;DHT22;10111;50.814;4.572;2023-04-29T13:22:44;16.70;99.90
19898;DHT22;10111;50.814;4.572;2023-04-29T13:25:10;16.80;99.90
19898;DHT22;10111;50.814;4.572;2023-04-29T13:27:40;16.80;99.90
19898;DHT22;10111;50.814;4.572;2023-04-29T13:30:07;17.10;99.90
19898;DHT22;10111;50.814;4.572;2023-04-29T13:32:33;17.00;99.90
19898;DHT22;10111;50.814;4.572;2023-04-29T13:34:59;16.90;99.90
19898;DHT22;10111;50.814;4.572;2023-04-29T13:37:25;17.00;99.90
19898;DHT22;10111;50.814;4.572;2023-04-29T13:39:51;16.90;99.90
19898;DHT22;10111;50.814;4.572;2023-04-29T13:42:16;17.00;99.90
19898;DHT22;10111;50.814;4.572;2023-04-29T13:44:42;17.00;99.90
19898;DHT22;10111;50.814;4.572;2023-04-29T13:47:12;16.70;99.90
19898;DHT22;10111;50.814;4.572;2023-04-29T13:49:41;16.80;99.90
19898;DHT22;10111;50.814;4.572;2023-04-29T13:52:10;16.90;99.90
19898;DHT22;10111;50.814;4.572;2023-04-29T13:54:36;17.00;99.90
19898;DHT22;10111;50.814;4.572;2023-04-29T13:57:02;16.90;99.90
19898;DHT22;10111;50.814;4.572;2023-04-29T13:59:29;16.90;99.90
19898;DHT22;10111;50.814;4.572;2023-04-29T14:01:55;16.90;99.90
19898;DHT22;10111;50.814;4.572;2023-04-29T14:04:22;16.90;99.90
19898;DHT22;10111;50.814;4.572;2023-04-29T14:06:47;16.60;99.90
19898;DHT22;10111;50.814;4.572;2023-04-29T14:09:13;16.40;99.90
19898;DHT22;10111;50.814;4.572;2023-04-29T14:11:39;16.60;99.90
19898;DHT22;10111;50.814;4.572;2023-04-29T14:14:04;16.50;99.90
19898;DHT22;10111;50.814;4.572;2023-04-29T14:16:30;16.50;99.90
19898;DHT22;10111;50.814;4.572;2023-04-29T14:18:56;16.60;99.90
19898;DHT22;10111;50.814;4.572;2023-04-29T14:21:22;16.80;99.90
19898;DHT22;10111;50.814;4.572;2023-04-29T14:23:48;16.80;99.90
19898;DHT22;10111;50.814;4.572;2023-04-29T14:26:14;17.10;99.90
19898;DHT22;10111;50.814;4.572;2023-04-29T14:28:40;17.20;99.90
19898;DHT22;10111;50.814;4.572;2023-04-29T14:31:05;17.40;99.90
19898;DHT22;10111;50.814;4.572;2023-04-29T14:33:31;17.30;99.90
19898;DHT22;10111;50.814;4.572;2023-04-29T14:35:57;17.10;99.90
19898;DHT22;10111;50.814;4.572;2023-04-29T14:38:23;17.20;99.90
19898;DHT22;10111;50.814;4.572;2023-04-29T14:40:48;17.40;99.90
19898;DHT22;10111;50.814;4.572;2023-04-29T14:43:14;17.40;99.90
19898;DHT22;10111;50.814;4.572;2023-04-29T14:45:40;17.50;99.90
19898;DHT22;10111;50.814;4.572;2023-04-29T14:48:06;17.30;99.90
19898;DHT22;10111;50.814;4.572;2023-04-29T14:50:32;17.50;99.90
19898;DHT22;10111;50.814;4.572;2023-04-29T14:52:58;17.60;99.90
19898;DHT22;10111;50.814;4.572;2023-04-29T14:55:24;17.60;99.90
19898;DHT22;10111;50.814;4.572;2023-04-29T14:57:50;17.50;99.90
19898;DHT22;10111;50.814;4.572;2023-04-29T15:00:16;17.20;99.90
19898;DHT22;10111;50.814;4.572;2023-04-29T15:02:41;17.10;99.90
19898;DHT22;10111;50.814;4.572;2023-04-29T15:05:07;17.00;99.90
19898;DHT22;10111;50.814;4.572;2023-04-29T15:07:33;16.90;99.90
19898;DHT22;10111;50.814;4.572;2023-04-29T15:09:58;17.00;99.90
19898;DHT22;10111;50.814;4.572;2023-04-29T15:12:24;17.10;99.90
19898;DHT22;10111;50.814;4.572;2023-04-29T15:14:50;17.10;99.90
19898;DHT22;10111;50.814;4.572;2023-04-29T15:17:17;17.00;99.90
19898;DHT22;10111;50.814;4.572;2023-04-29T15:19:43;17.00;99.90
19898;DHT22;10111;50.814;4.572;2023-04-29T15:22:08;17.20;99.90
19898;DHT22;10111;50.814;4.572;2023-04-29T15:24:35;17.20;99.90
19898;DHT22;10111;50.814;4.572;2023-04-29T15:27:00;17.10;99.90
19898;DHT22;10111;50.814;4.572;2023-04-29T15:29:27;17.20;99.90
19898;DHT22;10111;50.814;4.572;2023-04-29T15:31:52;17.30;99.90
19898;DHT22;10111;50.814;4.572;2023-04-29T15:34:18;17.10;99.90
19898;DHT22;10111;50.814;4.572;2023-04-29T15:36:44;17.20;99.90
19898;DHT22;10111;50.814;4.572;2023-04-29T15:39:09;17.10;99.90
19898;DHT22;10111;50.814;4.572;2023-04-29T15:41:36;17.10;99.90
19898;DHT22;10111;50.814;4.572;2023-04-29T15:44:02;17.40;99.90
19898;DHT22;10111;50.814;4.572;2023-04-29T15:46:29;17.20;99.90
19898;DHT22;10111;50.814;4.572;2023-04-29T15:48:55;17.20;99.90
19898;DHT22;10111;50.814;4.572;2023-04-29T15:51:21;17.30;99.90
19898;DHT22;10111;50.814;4.572;2023-04-29T15:53:47;17.50;99.90
19898;DHT22;10111;50.814;4.572;2023-04-29T15:56:13;17.50;99.90
19898;DHT22;10111;50.814;4.572;2023-04-29T15:58:39;17.40;99.90
19898;DHT22;10111;50.814;4.572;2023-04-29T16:01:04;17.30;99.90
19898;DHT22;10111;50.814;4.572;2023-04-29T16:03:30;17.20;99.90
19898;DHT22;10111;50.814;4.572;2023-04-29T16:05:56;17.30;99.90
19898;DHT22;10111;50.814;4.572;2023-04-29T16:08:21;17.30;99.90